GCXO Airport Information

Runway Information
Runway 12 Length 11155 ft width 148 ft
Elevation 2060 ft Threshold 0 ft Heading 111
Runway 30 Length 11155 ft Width 148 ft
Elevation 2002 ft Threshold 0 ft Heading 291
Airport Frequencies
Type APP Name APP Frequency 119.7 MHZ
Type ATIS Name ATIS Frequency 118.575 MHZ
Type GND Name GND Frequency 121.7 MHZ
Type TWR Name TWR Frequency 118.7 MHZ
Airport Navaids
Type VOR-DME Name Tenerife Norte Frequency 117700 KHZ
Type NDB Name Tenerife Norte Frequency 410 KHZ
Airport Weather Information & NOTAM
ADDS - METARS form results

(2121 UTC 26 February 2021)
Data provider http://aviationweather.gov/metar/data/
 
METAR text: GCXO 262100Z 33015KT 290V360 9999 FEW012 BKN021 12/08 Q1026 NOSIG
Conditions at: GCXO (TENERIFE/LOS ROD, ES) observed 2100 UTC 26 February 2021
Temperature: 12.0°C (54°F)
Dewpoint: 8.0°C (46°F) [RH = 76%]
Pressure (altimeter): 30.30 inches Hg (1026.0 mb)
Winds: from the NNW (330 degrees) at 17 MPH (15 knots; 7.7 m/s)
Visibility: 6 or more miles (10+ km)
Ceiling: 2100 feet AGL
Clouds: few clouds at 1200 feet AGL
broken clouds at 2100 feet AGL
Weather: no significant weather observed at this time

METAR text: GCXO 262030Z 33015KT 300V360 9999 FEW010 BKN018 11/09 Q1026 NOSIG
Conditions at: GCXO (TENERIFE/LOS ROD, ES) observed 2030 UTC 26 February 2021
Temperature: 11.0°C (52°F)
Dewpoint: 9.0°C (48°F) [RH = 87%]
Pressure (altimeter): 30.30 inches Hg (1026.0 mb)
Winds: from the NNW (330 degrees) at 17 MPH (15 knots; 7.7 m/s)
Visibility: 6 or more miles (10+ km)
Ceiling: 1800 feet AGL
Clouds: few clouds at 1000 feet AGL
broken clouds at 1800 feet AGL
Weather: no significant weather observed at this time

Forecast for: GCXO (TENERIFE/LOS ROD, ES)
Text: TAF GCXO 262000Z 2621/2721 32018KT 9999 BKN018 TX15/2714Z TN11/2707Z
Forecast period: 2100 UTC 26 February 2021 to 2100 UTC 27 February 2021
Forecast type: FROM: standard forecast or significant change
Winds: from the NW (320 degrees) at 21 MPH (18 knots; 9.3 m/s)
Visibility: 6 or more miles (10+ km)
Ceiling: 1800 feet AGL
Clouds: broken clouds at 1800 feet AGL
Weather: no significant weather forecast for this period
Text: PROB30
Forecast period: 2100 UTC 26 February 2021 to 1200 UTC 27 February 2021
Forecast type: TEMPORARY: The following changes expected for less than half the time period
Visibility: missing
Ceiling: 800 feet AGL
Clouds: broken clouds at 800 feet AGL
Weather: no significant weather forecast for this period
Text: TEMPO 2621/2712 BKN008
Forecast period: 1000 to 1600 UTC 27 February 2021
Forecast type: TEMPORARY: The following changes expected for less than half the time period
Winds: from the NW (310 degrees) at 17 MPH (15 knots; 7.7 m/s)
gusting to 32 MPH (28 knots; 14.4 m/s)
Visibility: missing
Ceiling: unknown
Clouds: missing
Weather: no significant weather forecast for this period